Decoded Metar for KPWT (BREMERTON NTNL in WA, USA) (IATA:PWT) | Meteo·Mobile Aviation Weather
aviador You're here:

KPWT Decoded Metar

BREMERTON NTNL in WA, USA
Report Time2018-12-19 15:56:00
UTC Time2018-12-19 16:43:27
Flight Rules mvfr MVFR
Wind170° at 07 kt
W.Decomp.*RWY 20: 4.5 kt HW 5.4 kt LCW
W.Rank170° ranks 8
Current wind is above 170° avg. (6.5)
Visibility9999 m
Phenomena:N/A
Clouds:Broken 016 Hf
Expected CloudBase > 400 ft AGL from Temp-Dew spread
Ceiling1,600 ft
Temp06°C (ISA -8)
Dew Point05°C (93% RH)
AAT2.3°C
QNH1024 hPa
Density Alt-738 ft
Elevation482 ft
Report Wrong Elevation
Raw Report
KPWT 191556Z AUTO 17007KT 10SM BKN016 06/05 A3024 RMK AO2 SLP261
T00610050=

Extra information for KPWT:More info

Metar Taf Metar & Taf Last 4 Metars F.Rules Stats Wind Profile Meteogram Temp Stats Airport Information Weather charts Add Link Nearby VenuesMetar ALERT Operation Metar Decoded Social comments

AIRNAV info for KPWT